sensor_id;sensor_type;location;lat;lon;timestamp;temperature;humidity
65989;HTU21D;53592;51.402;6.054;2023-05-07T00:01:38;17.35;77.54
65989;HTU21D;53592;51.402;6.054;2023-05-07T00:04:04;17.35;77.53
65989;HTU21D;53592;51.402;6.054;2023-05-07T00:06:31;17.36;77.49
65989;HTU21D;53592;51.402;6.054;2023-05-07T00:08:57;17.36;77.40
65989;HTU21D;53592;51.402;6.054;2023-05-07T00:11:23;17.37;77.45
65989;HTU21D;53592;51.402;6.054;2023-05-07T00:13:48;17.34;77.58
65989;HTU21D;53592;51.402;6.054;2023-05-07T00:16:14;17.31;77.60
65989;HTU21D;53592;51.402;6.054;2023-05-07T00:18:39;17.30;77.63
65989;HTU21D;53592;51.402;6.054;2023-05-07T00:21:05;17.30;77.65
65989;HTU21D;53592;51.402;6.054;2023-05-07T00:23:30;17.29;77.72
65989;HTU21D;53592;51.402;6.054;2023-05-07T00:25:56;17.29;77.76
65989;HTU21D;53592;51.402;6.054;2023-05-07T00:28:21;17.29;77.56
65989;HTU21D;53592;51.402;6.054;2023-05-07T00:30:47;17.31;77.56
65989;HTU21D;53592;51.402;6.054;2023-05-07T00:33:12;17.31;77.56
65989;HTU21D;53592;51.402;6.054;2023-05-07T00:35:38;17.29;77.89
65989;HTU21D;53592;51.402;6.054;2023-05-07T00:38:03;17.26;78.09
65989;HTU21D;53592;51.402;6.054;2023-05-07T00:40:29;17.23;78.39
65989;HTU21D;53592;51.402;6.054;2023-05-07T00:42:54;17.23;78.36
65989;HTU21D;53592;51.402;6.054;2023-05-07T00:45:26;17.24;78.27
65989;HTU21D;53592;51.402;6.054;2023-05-07T00:47:53;17.26;78.34
65989;HTU21D;53592;51.402;6.054;2023-05-07T00:50:19;17.24;78.37
65989;HTU21D;53592;51.402;6.054;2023-05-07T00:52:45;17.21;78.32
65989;HTU21D;53592;51.402;6.054;2023-05-07T00:55:11;17.22;78.24
65989;HTU21D;53592;51.402;6.054;2023-05-07T00:57:40;17.26;78.03
65989;HTU21D;53592;51.402;6.054;2023-05-07T01:00:07;17.26;78.10
65989;HTU21D;53592;51.402;6.054;2023-05-07T01:02:35;17.24;78.24
65989;HTU21D;53592;51.402;6.054;2023-05-07T01:05:02;17.20;78.45
65989;HTU21D;53592;51.402;6.054;2023-05-07T01:07:30;17.19;78.38
65989;HTU21D;53592;51.402;6.054;2023-05-07T01:09:57;17.17;78.38
65989;HTU21D;53592;51.402;6.054;2023-05-07T01:12:24;17.14;78.56
65989;HTU21D;53592;51.402;6.054;2023-05-07T01:14:51;17.13;78.70
65989;HTU21D;53592;51.402;6.054;2023-05-07T01:17:17;17.07;78.92
65989;HTU21D;53592;51.402;6.054;2023-05-07T01:19:42;17.00;79.17
65989;HTU21D;53592;51.402;6.054;2023-05-07T01:22:10;16.94;79.14
65989;HTU21D;53592;51.402;6.054;2023-05-07T01:24:41;16.98;79.13
65989;HTU21D;53592;51.402;6.054;2023-05-07T01:27:07;17.01;79.02
65989;HTU21D;53592;51.402;6.054;2023-05-07T01:29:32;17.06;78.83
65989;HTU21D;53592;51.402;6.054;2023-05-07T01:32:00;17.10;78.59
65989;HTU21D;53592;51.402;6.054;2023-05-07T01:34:30;17.13;78.58
65989;HTU21D;53592;51.402;6.054;2023-05-07T01:36:58;17.16;78.47
65989;HTU21D;53592;51.402;6.054;2023-05-07T01:39:26;17.19;78.05
65989;HTU21D;53592;51.402;6.054;2023-05-07T01:41:55;17.19;77.80
65989;HTU21D;53592;51.402;6.054;2023-05-07T01:44:22;17.20;77.54
65989;HTU21D;53592;51.402;6.054;2023-05-07T01:46:48;17.18;77.37
65989;HTU21D;53592;51.402;6.054;2023-05-07T01:49:15;17.19;77.31
65989;HTU21D;53592;51.402;6.054;2023-05-07T01:51:41;17.14;77.41
65989;HTU21D;53592;51.402;6.054;2023-05-07T01:54:07;17.10;77.69
65989;HTU21D;53592;51.402;6.054;2023-05-07T01:56:33;17.04;77.93
65989;HTU21D;53592;51.402;6.054;2023-05-07T01:58:59;17.04;77.85
65989;HTU21D;53592;51.402;6.054;2023-05-07T02:01:24;17.04;77.61
65989;HTU21D;53592;51.402;6.054;2023-05-07T02:03:50;17.03;77.52
65989;HTU21D;53592;51.402;6.054;2023-05-07T02:06:15;17.02;77.55
65989;HTU21D;53592;51.402;6.054;2023-05-07T02:08:40;17.01;77.41
65989;HTU21D;53592;51.402;6.054;2023-05-07T02:11:06;16.99;77.40
65989;HTU21D;53592;51.402;6.054;2023-05-07T02:13:33;16.94;77.54
65989;HTU21D;53592;51.402;6.054;2023-05-07T02:16:00;16.92;77.55
65989;HTU21D;53592;51.402;6.054;2023-05-07T02:18:25;16.90;77.54
65989;HTU21D;53592;51.402;6.054;2023-05-07T02:20:51;16.87;77.60
65989;HTU21D;53592;51.402;6.054;2023-05-07T02:23:16;16.82;77.76
65989;HTU21D;53592;51.402;6.054;2023-05-07T02:25:42;16.79;77.82
65989;HTU21D;53592;51.402;6.054;2023-05-07T02:28:07;16.80;77.91
65989;HTU21D;53592;51.402;6.054;2023-05-07T02:30:33;16.80;78.14
65989;HTU21D;53592;51.402;6.054;2023-05-07T02:32:58;16.76;78.44
65989;HTU21D;53592;51.402;6.054;2023-05-07T02:35:25;16.74;78.63
65989;HTU21D;53592;51.402;6.054;2023-05-07T02:37:51;16.67;78.76
65989;HTU21D;53592;51.402;6.054;2023-05-07T02:40:17;16.65;78.95
65989;HTU21D;53592;51.402;6.054;2023-05-07T02:42:42;16.64;79.14
65989;HTU21D;53592;51.402;6.054;2023-05-07T02:45:08;16.62;79.20
65989;HTU21D;53592;51.402;6.054;2023-05-07T02:47:34;16.61;79.22
65989;HTU21D;53592;51.402;6.054;2023-05-07T02:49:59;16.59;79.33
65989;HTU21D;53592;51.402;6.054;2023-05-07T02:52:25;16.60;79.26
65989;HTU21D;53592;51.402;6.054;2023-05-07T02:54:50;16.62;79.04
65989;HTU21D;53592;51.402;6.054;2023-05-07T02:57:16;16.61;78.97
65989;HTU21D;53592;51.402;6.054;2023-05-07T02:59:42;16.62;78.88
65989;HTU21D;53592;51.402;6.054;2023-05-07T03:02:07;16.63;78.88
65989;HTU21D;53592;51.402;6.054;2023-05-07T03:04:33;16.61;78.97
65989;HTU21D;53592;51.402;6.054;2023-05-07T03:06:58;16.60;78.95
65989;HTU21D;53592;51.402;6.054;2023-05-07T03:09:23;16.59;78.89
65989;HTU21D;53592;51.402;6.054;2023-05-07T03:11:49;16.58;78.79
65989;HTU21D;53592;51.402;6.054;2023-05-07T03:14:15;16.56;79.02
65989;HTU21D;53592;51.402;6.054;2023-05-07T03:16:40;16.54;79.23
65989;HTU21D;53592;51.402;6.054;2023-05-07T03:19:05;16.51;79.46
65989;HTU21D;53592;51.402;6.054;2023-05-07T03:21:31;16.49;79.62
65989;HTU21D;53592;51.402;6.054;2023-05-07T03:23:59;16.51;79.74
65989;HTU21D;53592;51.402;6.054;2023-05-07T03:26:24;16.54;79.16
65989;HTU21D;53592;51.402;6.054;2023-05-07T03:28:50;16.58;78.88
65989;HTU21D;53592;51.402;6.054;2023-05-07T03:31:16;16.59;78.81
65989;HTU21D;53592;51.402;6.054;2023-05-07T03:33:56;16.57;78.77
65989;HTU21D;53592;51.402;6.054;2023-05-07T03:36:23;16.56;78.79
65989;HTU21D;53592;51.402;6.054;2023-05-07T03:38:49;16.51;79.07
65989;HTU21D;53592;51.402;6.054;2023-05-07T03:41:15;16.50;79.21
65989;HTU21D;53592;51.402;6.054;2023-05-07T03:43:41;16.48;79.45
65989;HTU21D;53592;51.402;6.054;2023-05-07T03:46:07;16.48;79.54
65989;HTU21D;53592;51.402;6.054;2023-05-07T03:48:32;16.50;79.33
65989;HTU21D;53592;51.402;6.054;2023-05-07T03:50:58;16.48;79.28
65989;HTU21D;53592;51.402;6.054;2023-05-07T03:53:24;16.49;79.14
65989;HTU21D;53592;51.402;6.054;2023-05-07T03:55:49;16.50;79.08
65989;HTU21D;53592;51.402;6.054;2023-05-07T03:58:15;16.52;78.82
65989;HTU21D;53592;51.402;6.054;2023-05-07T04:00:41;16.56;78.83
65989;HTU21D;53592;51.402;6.054;2023-05-07T04:03:06;16.54;79.08
65989;HTU21D;53592;51.402;6.054;2023-05-07T04:05:32;16.51;79.23
65989;HTU21D;53592;51.402;6.054;2023-05-07T04:07:58;16.50;79.43
65989;HTU21D;53592;51.402;6.054;2023-05-07T04:10:23;16.49;79.44
65989;HTU21D;53592;51.402;6.054;2023-05-07T04:12:49;16.47;79.45
65989;HTU21D;53592;51.402;6.054;2023-05-07T04:15:14;16.47;79.52
65989;HTU21D;53592;51.402;6.054;2023-05-07T04:17:40;16.46;79.53
65989;HTU21D;53592;51.402;6.054;2023-05-07T04:20:08;16.43;79.55
65989;HTU21D;53592;51.402;6.054;2023-05-07T04:22:34;16.41;79.56
65989;HTU21D;53592;51.402;6.054;2023-05-07T04:25:00;16.35;79.61
65989;HTU21D;53592;51.402;6.054;2023-05-07T04:27:25;16.35;79.61
65989;HTU21D;53592;51.402;6.054;2023-05-07T04:29:51;16.33;79.72
65989;HTU21D;53592;51.402;6.054;2023-05-07T04:32:21;16.33;79.62
65989;HTU21D;53592;51.402;6.054;2023-05-07T04:34:47;16.34;79.84
65989;HTU21D;53592;51.402;6.054;2023-05-07T04:37:12;16.33;79.87
65989;HTU21D;53592;51.402;6.054;2023-05-07T04:39:37;16.35;79.74
65989;HTU21D;53592;51.402;6.054;2023-05-07T04:42:03;16.37;79.57
65989;HTU21D;53592;51.402;6.054;2023-05-07T04:44:28;16.40;79.41
65989;HTU21D;53592;51.402;6.054;2023-05-07T04:46:56;16.42;79.37
65989;HTU21D;53592;51.402;6.054;2023-05-07T04:49:22;16.41;79.53
65989;HTU21D;53592;51.402;6.054;2023-05-07T04:51:47;16.40;79.66
65989;HTU21D;53592;51.402;6.054;2023-05-07T04:54:12;16.40;79.75
65989;HTU21D;53592;51.402;6.054;2023-05-07T04:56:38;16.41;79.75
65989;HTU21D;53592;51.402;6.054;2023-05-07T04:59:03;16.42;79.74
65989;HTU21D;53592;51.402;6.054;2023-05-07T05:01:29;16.45;79.72
65989;HTU21D;53592;51.402;6.054;2023-05-07T05:03:54;16.46;79.60
65989;HTU21D;53592;51.402;6.054;2023-05-07T05:06:20;16.48;79.56
65989;HTU21D;53592;51.402;6.054;2023-05-07T05:08:45;16.52;79.64
65989;HTU21D;53592;51.402;6.054;2023-05-07T05:11:11;16.56;79.63
65989;HTU21D;53592;51.402;6.054;2023-05-07T05:13:36;16.59;79.71
65989;HTU21D;53592;51.402;6.054;2023-05-07T05:16:01;16.65;79.82
65989;HTU21D;53592;51.402;6.054;2023-05-07T05:18:27;16.73;79.80
65989;HTU21D;53592;51.402;6.054;2023-05-07T05:20:52;16.81;79.48
65989;HTU21D;53592;51.402;6.054;2023-05-07T05:23:18;16.92;79.07
65989;HTU21D;53592;51.402;6.054;2023-05-07T05:25:44;16.99;78.70
65989;HTU21D;53592;51.402;6.054;2023-05-07T05:28:09;17.04;78.24
65989;HTU21D;53592;51.402;6.054;2023-05-07T05:30:35;17.08;77.97
65989;HTU21D;53592;51.402;6.054;2023-05-07T05:33:00;17.14;77.79
65989;HTU21D;53592;51.402;6.054;2023-05-07T05:35:26;17.20;77.57
65989;HTU21D;53592;51.402;6.054;2023-05-07T05:37:52;17.25;77.40
65989;HTU21D;53592;51.402;6.054;2023-05-07T05:40:17;17.30;77.41
65989;HTU21D;53592;51.402;6.054;2023-05-07T05:42:42;17.33;77.15
65989;HTU21D;53592;51.402;6.054;2023-05-07T05:45:08;17.37;76.96
65989;HTU21D;53592;51.402;6.054;2023-05-07T05:47:34;17.41;76.99
65989;HTU21D;53592;51.402;6.054;2023-05-07T05:49:59;17.52;76.74
65989;HTU21D;53592;51.402;6.054;2023-05-07T05:52:25;17.53;76.54
65989;HTU21D;53592;51.402;6.054;2023-05-07T05:54:50;17.61;76.37
65989;HTU21D;53592;51.402;6.054;2023-05-07T05:57:16;17.60;76.18
65989;HTU21D;53592;51.402;6.054;2023-05-07T05:59:42;17.63;76.25
65989;HTU21D;53592;51.402;6.054;2023-05-07T06:02:07;17.69;76.01
65989;HTU21D;53592;51.402;6.054;2023-05-07T06:04:33;17.73;75.86
65989;HTU21D;53592;51.402;6.054;2023-05-07T06:06:58;17.75;75.96
65989;HTU21D;53592;51.402;6.054;2023-05-07T06:09:24;17.81;75.96
65989;HTU21D;53592;51.402;6.054;2023-05-07T06:11:49;17.88;75.73
65989;HTU21D;53592;51.402;6.054;2023-05-07T06:14:15;17.94;75.24
65989;HTU21D;53592;51.402;6.054;2023-05-07T06:16:42;17.93;74.95
65989;HTU21D;53592;51.402;6.054;2023-05-07T06:19:07;17.95;75.11
65989;HTU21D;53592;51.402;6.054;2023-05-07T06:21:33;18.03;74.89
65989;HTU21D;53592;51.402;6.054;2023-05-07T06:24:00;18.10;74.56
65989;HTU21D;53592;51.402;6.054;2023-05-07T06:26:26;18.10;74.47
65989;HTU21D;53592;51.402;6.054;2023-05-07T06:28:51;18.17;74.00
65989;HTU21D;53592;51.402;6.054;2023-05-07T06:31:20;18.18;74.15
65989;HTU21D;53592;51.402;6.054;2023-05-07T06:33:46;18.23;74.31
65989;HTU21D;53592;51.402;6.054;2023-05-07T06:36:12;18.34;74.59
65989;HTU21D;53592;51.402;6.054;2023-05-07T06:38:37;18.46;74.64
65989;HTU21D;53592;51.402;6.054;2023-05-07T06:41:03;18.55;73.88
65989;HTU21D;53592;51.402;6.054;2023-05-07T06:43:28;18.66;73.34
65989;HTU21D;53592;51.402;6.054;2023-05-07T06:45:54;18.68;72.49
65989;HTU21D;53592;51.402;6.054;2023-05-07T06:48:19;18.69;72.53
65989;HTU21D;53592;51.402;6.054;2023-05-07T06:50:45;18.79;72.81
65989;HTU21D;53592;51.402;6.054;2023-05-07T06:53:10;18.93;72.08
65989;HTU21D;53592;51.402;6.054;2023-05-07T06:55:36;19.00;71.69
65989;HTU21D;53592;51.402;6.054;2023-05-07T06:58:03;19.10;71.58
65989;HTU21D;53592;51.402;6.054;2023-05-07T07:00:29;19.22;71.60
65989;HTU21D;53592;51.402;6.054;2023-05-07T07:02:56;19.32;70.98
65989;HTU21D;53592;51.402;6.054;2023-05-07T07:05:22;19.37;70.57
65989;HTU21D;53592;51.402;6.054;2023-05-07T07:07:47;19.47;70.10
65989;HTU21D;53592;51.402;6.054;2023-05-07T07:10:21;19.55;69.55
65989;HTU21D;53592;51.402;6.054;2023-05-07T07:12:47;19.62;69.73
65989;HTU21D;53592;51.402;6.054;2023-05-07T07:15:13;19.72;69.15
65989;HTU21D;53592;51.402;6.054;2023-05-07T07:17:39;19.81;68.84
65989;HTU21D;53592;51.402;6.054;2023-05-07T07:20:05;19.87;68.41
65989;HTU21D;53592;51.402;6.054;2023-05-07T07:22:31;19.88;68.39
65989;HTU21D;53592;51.402;6.054;2023-05-07T07:24:56;19.92;67.97
65989;HTU21D;53592;51.402;6.054;2023-05-07T07:27:22;19.97;67.82
65989;HTU21D;53592;51.402;6.054;2023-05-07T07:29:47;20.04;68.32
65989;HTU21D;53592;51.402;6.054;2023-05-07T07:32:13;20.19;68.47
65989;HTU21D;53592;51.402;6.054;2023-05-07T07:34:38;20.40;67.93
65989;HTU21D;53592;51.402;6.054;2023-05-07T07:37:04;20.60;67.66
65989;HTU21D;53592;51.402;6.054;2023-05-07T07:39:34;20.75;67.28
65989;HTU21D;53592;51.402;6.054;2023-05-07T07:42:00;20.87;66.67
65989;HTU21D;53592;51.402;6.054;2023-05-07T07:44:27;20.95;65.87
65989;HTU21D;53592;51.402;6.054;2023-05-07T07:46:53;21.00;65.41
65989;HTU21D;53592;51.402;6.054;2023-05-07T07:49:18;21.01;65.35
65989;HTU21D;53592;51.402;6.054;2023-05-07T07:51:44;21.13;65.70
65989;HTU21D;53592;51.402;6.054;2023-05-07T07:54:09;21.27;65.30
65989;HTU21D;53592;51.402;6.054;2023-05-07T07:56:35;21.45;64.98
65989;HTU21D;53592;51.402;6.054;2023-05-07T07:59:01;21.53;64.57
65989;HTU21D;53592;51.402;6.054;2023-05-07T08:01:29;21.63;64.30
65989;HTU21D;53592;51.402;6.054;2023-05-07T08:03:54;21.78;64.09
65989;HTU21D;53592;51.402;6.054;2023-05-07T08:06:20;21.82;63.24
65989;HTU21D;53592;51.402;6.054;2023-05-07T08:08:45;21.79;63.23
65989;HTU21D;53592;51.402;6.054;2023-05-07T08:11:11;21.88;62.92
65989;HTU21D;53592;51.402;6.054;2023-05-07T08:13:38;21.95;63.13
65989;HTU21D;53592;51.402;6.054;2023-05-07T08:16:04;22.03;63.39
65989;HTU21D;53592;51.402;6.054;2023-05-07T08:18:29;22.22;62.21
65989;HTU21D;53592;51.402;6.054;2023-05-07T08:20:55;22.27;61.76
65989;HTU21D;53592;51.402;6.054;2023-05-07T08:23:21;22.35;61.73
65989;HTU21D;53592;51.402;6.054;2023-05-07T08:25:47;22.39;61.24
65989;HTU21D;53592;51.402;6.054;2023-05-07T08:28:13;22.43;61.73
65989;HTU21D;53592;51.402;6.054;2023-05-07T08:30:38;22.62;61.95
65989;HTU21D;53592;51.402;6.054;2023-05-07T08:33:04;22.76;61.21
65989;HTU21D;53592;51.402;6.054;2023-05-07T08:35:29;23.00;61.08
65989;HTU21D;53592;51.402;6.054;2023-05-07T08:37:55;23.12;60.22
65989;HTU21D;53592;51.402;6.054;2023-05-07T08:40:25;23.17;60.18
65989;HTU21D;53592;51.402;6.054;2023-05-07T08:42:52;23.39;59.18
65989;HTU21D;53592;51.402;6.054;2023-05-07T08:45:19;23.51;58.13
65989;HTU21D;53592;51.402;6.054;2023-05-07T08:47:49;23.40;57.58
65989;HTU21D;53592;51.402;6.054;2023-05-07T08:50:16;23.47;58.01
65989;HTU21D;53592;51.402;6.054;2023-05-07T08:52:42;23.54;57.61
65989;HTU21D;53592;51.402;6.054;2023-05-07T08:55:08;23.64;56.93
65989;HTU21D;53592;51.402;6.054;2023-05-07T08:57:34;23.73;56.88
65989;HTU21D;53592;51.402;6.054;2023-05-07T08:59:59;23.96;57.00
65989;HTU21D;53592;51.402;6.054;2023-05-07T09:02:25;24.26;56.51
65989;HTU21D;53592;51.402;6.054;2023-05-07T09:04:51;24.55;54.99
65989;HTU21D;53592;51.402;6.054;2023-05-07T09:07:19;24.75;55.67
65989;HTU21D;53592;51.402;6.054;2023-05-07T09:09:46;25.27;55.06
65989;HTU21D;53592;51.402;6.054;2023-05-07T09:12:11;25.61;53.23
65989;HTU21D;53592;51.402;6.054;2023-05-07T09:14:38;26.03;52.88
65989;HTU21D;53592;51.402;6.054;2023-05-07T09:17:04;26.46;51.46
65989;HTU21D;53592;51.402;6.054;2023-05-07T09:19:31;26.75;51.15
65989;HTU21D;53592;51.402;6.054;2023-05-07T09:22:05;27.06;50.36
65989;HTU21D;53592;51.402;6.054;2023-05-07T09:24:32;27.38;49.82
65989;HTU21D;53592;51.402;6.054;2023-05-07T09:27:07;27.61;48.81
65989;HTU21D;53592;51.402;6.054;2023-05-07T09:29:35;27.75;48.37
65989;HTU21D;53592;51.402;6.054;2023-05-07T09:32:05;27.80;47.45
65989;HTU21D;53592;51.402;6.054;2023-05-07T09:34:31;27.76;47.08
65989;HTU21D;53592;51.402;6.054;2023-05-07T09:37:04;27.69;48.46
65989;HTU21D;53592;51.402;6.054;2023-05-07T09:39:44;27.67;47.58
65989;HTU21D;53592;51.402;6.054;2023-05-07T09:42:10;27.54;46.85
65989;HTU21D;53592;51.402;6.054;2023-05-07T09:44:37;27.39;48.37
65989;HTU21D;53592;51.402;6.054;2023-05-07T09:47:07;27.29;47.79
65989;HTU21D;53592;51.402;6.054;2023-05-07T09:49:40;27.13;47.50
65989;HTU21D;53592;51.402;6.054;2023-05-07T09:52:07;26.99;48.47
65989;HTU21D;53592;51.402;6.054;2023-05-07T09:54:36;26.94;47.18
65989;HTU21D;53592;51.402;6.054;2023-05-07T09:57:04;26.73;47.92
65989;HTU21D;53592;51.402;6.054;2023-05-07T09:59:32;26.65;49.11
65989;HTU21D;53592;51.402;6.054;2023-05-07T10:01:59;26.72;49.25
65989;HTU21D;53592;51.402;6.054;2023-05-07T10:04:28;26.85;48.87
65989;HTU21D;53592;51.402;6.054;2023-05-07T10:06:55;26.91;48.35
65989;HTU21D;53592;51.402;6.054;2023-05-07T10:09:21;27.08;48.26
65989;HTU21D;53592;51.402;6.054;2023-05-07T10:11:48;27.17;46.34
65989;HTU21D;53592;51.402;6.054;2023-05-07T10:14:21;27.20;47.63
65989;HTU21D;53592;51.402;6.054;2023-05-07T10:16:48;27.30;47.29
65989;HTU21D;53592;51.402;6.054;2023-05-07T10:19:14;27.34;46.78
65989;HTU21D;53592;51.402;6.054;2023-05-07T10:21:54;27.28;47.60
65989;HTU21D;53592;51.402;6.054;2023-05-07T10:24:29;27.38;47.73
65989;HTU21D;53592;51.402;6.054;2023-05-07T10:26:58;27.47;46.06
65989;HTU21D;53592;51.402;6.054;2023-05-07T10:29:45;27.37;46.12
65989;HTU21D;53592;51.402;6.054;2023-05-07T10:34:57;27.20;46.47
65989;HTU21D;53592;51.402;6.054;2023-05-07T10:37:25;27.19;46.99
65989;HTU21D;53592;51.402;6.054;2023-05-07T10:39:51;27.02;46.03
65989;HTU21D;53592;51.402;6.054;2023-05-07T10:42:17;26.94;46.56
65989;HTU21D;53592;51.402;6.054;2023-05-07T10:44:43;26.95;47.24
65989;HTU21D;53592;51.402;6.054;2023-05-07T10:47:12;26.87;46.28
65989;HTU21D;53592;51.402;6.054;2023-05-07T10:52:18;26.91;46.09
65989;HTU21D;53592;51.402;6.054;2023-05-07T10:54:44;26.84;46.11
65989;HTU21D;53592;51.402;6.054;2023-05-07T10:57:36;26.73;47.02
65989;HTU21D;53592;51.402;6.054;2023-05-07T11:05:27;26.41;46.60
65989;HTU21D;53592;51.402;6.054;2023-05-07T11:08:01;26.28;47.16
65989;HTU21D;53592;51.402;6.054;2023-05-07T11:10:52;26.24;47.76
65989;HTU21D;53592;51.402;6.054;2023-05-07T11:13:40;26.26;48.50
65989;HTU21D;53592;51.402;6.054;2023-05-07T11:16:17;26.39;47.83
65989;HTU21D;53592;51.402;6.054;2023-05-07T11:18:56;26.22;47.54
65989;HTU21D;53592;51.402;6.054;2023-05-07T11:21:41;26.20;48.18
65989;HTU21D;53592;51.402;6.054;2023-05-07T11:24:09;26.36;49.05
65989;HTU21D;53592;51.402;6.054;2023-05-07T11:26:50;26.49;47.76
65989;HTU21D;53592;51.402;6.054;2023-05-07T11:29:19;26.56;46.64
65989;HTU21D;53592;51.402;6.054;2023-05-07T11:31:49;26.66;47.73
65989;HTU21D;53592;51.402;6.054;2023-05-07T11:34:24;26.67;46.92
65989;HTU21D;53592;51.402;6.054;2023-05-07T11:36:51;26.65;46.17
65989;HTU21D;53592;51.402;6.054;2023-05-07T11:39:31;26.43;45.34
65989;HTU21D;53592;51.402;6.054;2023-05-07T11:41:59;26.23;45.64
65989;HTU21D;53592;51.402;6.054;2023-05-07T11:44:25;26.13;45.46
65989;HTU21D;53592;51.402;6.054;2023-05-07T11:46:50;26.09;45.32
65989;HTU21D;53592;51.402;6.054;2023-05-07T11:49:17;26.07;45.51
65989;HTU21D;53592;51.402;6.054;2023-05-07T11:51:43;26.02;44.74
65989;HTU21D;53592;51.402;6.054;2023-05-07T11:54:10;25.80;44.54
65989;HTU21D;53592;51.402;6.054;2023-05-07T11:56:37;25.47;45.93
65989;HTU21D;53592;51.402;6.054;2023-05-07T11:59:03;25.46;47.17
65989;HTU21D;53592;51.402;6.054;2023-05-07T12:01:28;25.43;46.73
65989;HTU21D;53592;51.402;6.054;2023-05-07T12:03:54;25.47;46.73
65989;HTU21D;53592;51.402;6.054;2023-05-07T12:06:19;25.39;46.66
65989;HTU21D;53592;51.402;6.054;2023-05-07T12:08:46;25.40;46.44
65989;HTU21D;53592;51.402;6.054;2023-05-07T12:11:16;25.35;47.17
65989;HTU21D;53592;51.402;6.054;2023-05-07T12:13:43;25.39;47.59
65989;HTU21D;53592;51.402;6.054;2023-05-07T12:16:09;25.49;47.16
65989;HTU21D;53592;51.402;6.054;2023-05-07T12:18:36;25.56;47.11
65989;HTU21D;53592;51.402;6.054;2023-05-07T12:21:04;25.56;46.51
65989;HTU21D;53592;51.402;6.054;2023-05-07T12:23:30;25.62;46.44
65989;HTU21D;53592;51.402;6.054;2023-05-07T12:25:56;25.74;46.07
65989;HTU21D;53592;51.402;6.054;2023-05-07T12:28:21;25.79;45.73
65989;HTU21D;53592;51.402;6.054;2023-05-07T12:30:48;25.88;45.76
65989;HTU21D;53592;51.402;6.054;2023-05-07T12:33:17;25.88;45.83
65989;HTU21D;53592;51.402;6.054;2023-05-07T12:35:43;25.86;45.94
65989;HTU21D;53592;51.402;6.054;2023-05-07T12:38:11;25.87;45.28
65989;HTU21D;53592;51.402;6.054;2023-05-07T12:40:39;25.81;45.18
65989;HTU21D;53592;51.402;6.054;2023-05-07T12:43:05;25.75;45.00
65989;HTU21D;53592;51.402;6.054;2023-05-07T12:45:31;25.68;45.21
65989;HTU21D;53592;51.402;6.054;2023-05-07T12:48:01;25.64;45.69
65989;HTU21D;53592;51.402;6.054;2023-05-07T12:50:31;25.54;45.80
65989;HTU21D;53592;51.402;6.054;2023-05-07T12:52:58;25.39;46.63
65989;HTU21D;53592;51.402;6.054;2023-05-07T12:55:23;25.31;46.56
65989;HTU21D;53592;51.402;6.054;2023-05-07T12:57:50;25.15;46.36
65989;HTU21D;53592;51.402;6.054;2023-05-07T13:00:17;24.94;46.80
65989;HTU21D;53592;51.402;6.054;2023-05-07T13:02:44;24.77;47.05
65989;HTU21D;53592;51.402;6.054;2023-05-07T13:05:10;24.70;47.44
65989;HTU21D;53592;51.402;6.054;2023-05-07T13:07:36;24.53;47.88
65989;HTU21D;53592;51.402;6.054;2023-05-07T13:10:03;24.47;48.26
65989;HTU21D;53592;51.402;6.054;2023-05-07T13:12:29;24.43;48.82
65989;HTU21D;53592;51.402;6.054;2023-05-07T13:14:54;24.40;49.55
65989;HTU21D;53592;51.402;6.054;2023-05-07T13:17:20;24.35;49.31
65989;HTU21D;53592;51.402;6.054;2023-05-07T13:19:45;24.33;49.48
65989;HTU21D;53592;51.402;6.054;2023-05-07T13:22:11;24.33;48.48
65989;HTU21D;53592;51.402;6.054;2023-05-07T13:24:36;24.27;48.13
65989;HTU21D;53592;51.402;6.054;2023-05-07T13:27:02;24.12;48.44
65989;HTU21D;53592;51.402;6.054;2023-05-07T13:29:28;24.09;49.27
65989;HTU21D;53592;51.402;6.054;2023-05-07T13:31:56;24.05;50.26
65989;HTU21D;53592;51.402;6.054;2023-05-07T13:34:22;24.08;51.96
65989;HTU21D;53592;51.402;6.054;2023-05-07T13:36:47;24.06;52.58
65989;HTU21D;53592;51.402;6.054;2023-05-07T13:39:13;24.10;52.87
65989;HTU21D;53592;51.402;6.054;2023-05-07T13:41:38;24.09;52.77
65989;HTU21D;53592;51.402;6.054;2023-05-07T13:44:03;23.82;53.29
65989;HTU21D;53592;51.402;6.054;2023-05-07T13:46:29;23.46;54.13
65989;HTU21D;53592;51.402;6.054;2023-05-07T13:48:55;23.16;55.52
65989;HTU21D;53592;51.402;6.054;2023-05-07T13:51:21;22.86;56.36
65989;HTU21D;53592;51.402;6.054;2023-05-07T13:53:46;22.67;57.22
65989;HTU21D;53592;51.402;6.054;2023-05-07T13:56:12;22.42;57.94
65989;HTU21D;53592;51.402;6.054;2023-05-07T13:58:38;22.20;58.54
65989;HTU21D;53592;51.402;6.054;2023-05-07T14:01:03;21.95;59.28
65989;HTU21D;53592;51.402;6.054;2023-05-07T14:03:29;21.78;60.21
65989;HTU21D;53592;51.402;6.054;2023-05-07T14:05:57;21.64;61.11
65989;HTU21D;53592;51.402;6.054;2023-05-07T14:08:23;21.49;62.05
65989;HTU21D;53592;51.402;6.054;2023-05-07T14:10:48;21.46;62.59
65989;HTU21D;53592;51.402;6.054;2023-05-07T14:13:14;21.42;63.07
65989;HTU21D;53592;51.402;6.054;2023-05-07T14:15:40;21.33;63.62
65989;HTU21D;53592;51.402;6.054;2023-05-07T14:18:16;21.32;64.50
65989;HTU21D;53592;51.402;6.054;2023-05-07T14:23:17;21.20;64.73
65989;HTU21D;53592;51.402;6.054;2023-05-07T14:25:44;21.14;64.88
65989;HTU21D;53592;51.402;6.054;2023-05-07T14:28:11;21.09;65.36
65989;HTU21D;53592;51.402;6.054;2023-05-07T14:30:36;21.07;65.44
65989;HTU21D;53592;51.402;6.054;2023-05-07T14:33:02;21.02;64.56
65989;HTU21D;53592;51.402;6.054;2023-05-07T14:35:27;21.01;64.93
65989;HTU21D;53592;51.402;6.054;2023-05-07T14:37:53;21.04;64.29
65989;HTU21D;53592;51.402;6.054;2023-05-07T14:40:18;21.07;64.31
65989;HTU21D;53592;51.402;6.054;2023-05-07T14:42:44;21.11;63.64
65989;HTU21D;53592;51.402;6.054;2023-05-07T14:45:10;21.17;62.96
65989;HTU21D;53592;51.402;6.054;2023-05-07T14:47:35;21.14;62.33
65989;HTU21D;53592;51.402;6.054;2023-05-07T14:50:01;21.09;62.96
65989;HTU21D;53592;51.402;6.054;2023-05-07T14:52:26;21.14;63.24
65989;HTU21D;53592;51.402;6.054;2023-05-07T14:54:52;21.24;62.90
65989;HTU21D;53592;51.402;6.054;2023-05-07T14:57:17;21.34;62.63
65989;HTU21D;53592;51.402;6.054;2023-05-07T14:59:45;21.45;61.80
65989;HTU21D;53592;51.402;6.054;2023-05-07T15:02:11;21.47;60.33
65989;HTU21D;53592;51.402;6.054;2023-05-07T15:04:37;21.47;60.20
65989;HTU21D;53592;51.402;6.054;2023-05-07T15:07:04;21.52;59.57
65989;HTU21D;53592;51.402;6.054;2023-05-07T15:09:30;21.51;59.28
65989;HTU21D;53592;51.402;6.054;2023-05-07T15:11:55;21.60;59.22
65989;HTU21D;53592;51.402;6.054;2023-05-07T15:14:21;21.68;59.68
65989;HTU21D;53592;51.402;6.054;2023-05-07T15:16:50;21.81;59.73
65989;HTU21D;53592;51.402;6.054;2023-05-07T15:19:16;21.97;59.61
65989;HTU21D;53592;51.402;6.054;2023-05-07T15:21:42;22.16;59.16
65989;HTU21D;53592;51.402;6.054;2023-05-07T15:24:08;22.39;59.05
65989;HTU21D;53592;51.402;6.054;2023-05-07T15:26:33;22.53;57.92